createdAt,value
2022-10-23T00:00:04.837Z,12.96
2022-10-23T00:01:24.718Z,13.01
2022-10-23T00:02:03.992Z,13.01
2022-10-23T00:03:03.673Z,13.00
2022-10-23T00:04:04.653Z,13.03
2022-10-23T00:05:05.274Z,13.03
2022-10-23T00:06:05.043Z,13.04
2022-10-23T00:07:04.216Z,13.03
2022-10-23T00:08:05.145Z,13.04
2022-10-23T00:09:04.060Z,13.03
2022-10-23T00:10:05.228Z,13.03
2022-10-23T00:11:23.547Z,13.01
2022-10-23T00:12:04.906Z,13.03
2022-10-23T00:13:04.216Z,13.03
2022-10-23T00:14:04.948Z,13.03
2022-10-23T00:15:05.247Z,13.04
2022-10-23T00:16:04.547Z,13.05
2022-10-23T00:17:05.347Z,13.05
2022-10-23T00:18:05.130Z,13.05
2022-10-23T00:19:04.223Z,13.04
2022-10-23T00:20:04.689Z,13.04
2022-10-23T00:21:23.516Z,13.03
2022-10-23T00:22:05.319Z,13.04
2022-10-23T00:23:04.599Z,13.04
2022-10-23T00:24:03.561Z,13.04
2022-10-23T00:25:04.225Z,13.03
2022-10-23T00:26:04.958Z,13.04
2022-10-23T00:27:05.243Z,13.03
2022-10-23T00:28:05.014Z,13.04
2022-10-23T00:29:04.798Z,13.04
2022-10-23T00:30:03.681Z,13.05
2022-10-23T00:31:23.395Z,13.05
2022-10-23T00:32:05.104Z,13.07
2022-10-23T00:33:04.892Z,13.07
2022-10-23T00:34:04.413Z,13.07
2022-10-23T00:35:04.977Z,13.08
2022-10-23T00:36:04.265Z,13.07
2022-10-23T00:37:04.237Z,13.05
2022-10-23T00:38:04.913Z,13.07
2022-10-23T00:39:03.307Z,13.04
2022-10-23T00:40:04.975Z,13.04
2022-10-23T00:41:23.292Z,13.04
2022-10-23T00:42:04.625Z,13.04
2022-10-23T00:43:04.235Z,13.03
2022-10-23T00:44:04.209Z,13.01
2022-10-23T00:45:04.496Z,13.01
2022-10-23T00:46:04.275Z,13.00
2022-10-23T00:47:05.046Z,12.97
2022-10-23T00:48:04.835Z,12.96
2022-10-23T00:49:03.311Z,12.95
2022-10-23T00:50:04.901Z,12.95
2022-10-23T00:51:23.196Z,12.93
2022-10-23T00:52:03.575Z,12.93
2022-10-23T00:53:04.798Z,12.93
2022-10-23T00:55:04.410Z,12.90
2022-10-23T00:56:04.145Z,12.90
2022-10-23T00:57:04.917Z,12.90
2022-10-23T00:58:04.717Z,12.89
2022-10-23T00:59:04.506Z,12.87
2022-10-23T01:00:03.771Z,12.87
2022-10-23T01:01:24.736Z,12.86
2022-10-23T01:02:03.453Z,12.87
2022-10-23T01:03:03.816Z,12.86
2022-10-23T01:04:04.332Z,12.83
2022-10-23T01:05:04.621Z,12.83
2022-10-23T01:06:04.290Z,12.82
2022-10-23T01:07:03.206Z,12.79
2022-10-23T01:08:02.933Z,12.78
2022-10-23T01:09:05.529Z,12.78
2022-10-23T01:10:02.930Z,12.77
2022-10-23T01:11:23.760Z,12.75
2022-10-23T01:12:04.422Z,12.77
2022-10-23T01:13:04.671Z,12.72
2022-10-23T01:15:03.452Z,12.71
2022-10-23T01:16:02.993Z,12.70
2022-10-23T01:17:03.242Z,12.70
2022-10-23T01:18:03.463Z,12.68
2022-10-23T01:19:03.246Z,12.67
2022-10-23T01:20:02.986Z,12.64
2022-10-23T01:21:24.712Z,12.60
2022-10-23T01:22:03.003Z,12.59
2022-10-23T01:23:02.752Z,12.60
2022-10-23T01:24:03.373Z,12.59
2022-10-23T01:25:02.791Z,12.59
2022-10-23T01:26:03.043Z,12.56
2022-10-23T01:27:02.777Z,12.57
2022-10-23T01:28:03.033Z,12.57
2022-10-23T01:29:02.816Z,12.57
2022-10-23T01:30:04.472Z,12.57
2022-10-23T01:31:23.668Z,12.59
2022-10-23T01:32:03.418Z,12.57
2022-10-23T01:33:02.877Z,12.56
2022-10-23T01:34:02.968Z,12.56
2022-10-23T01:35:02.707Z,12.57
2022-10-23T01:36:02.989Z,12.56
2022-10-23T01:37:02.717Z,12.57
2022-10-23T01:38:02.980Z,12.56
2022-10-23T01:40:02.980Z,12.57
2022-10-23T01:41:23.300Z,12.54
2022-10-23T01:42:02.520Z,12.56
2022-10-23T01:43:02.769Z,12.54
2022-10-23T01:44:02.551Z,12.53
2022-10-23T01:45:03.097Z,12.53
2022-10-23T01:46:02.519Z,12.53
2022-10-23T01:47:02.781Z,12.53
2022-10-23T01:48:02.519Z,12.53
2022-10-23T01:49:03.727Z,12.56
2022-10-23T01:50:02.507Z,12.56
2022-10-23T01:51:24.282Z,12.56
2022-10-23T01:52:03.855Z,12.57
2022-10-23T01:53:03.302Z,12.56
2022-10-23T01:54:04.021Z,12.56
2022-10-23T01:55:04.304Z,12.56
2022-10-23T01:56:04.138Z,12.56
2022-10-23T01:57:03.929Z,12.56
2022-10-23T01:58:03.434Z,12.56
2022-10-23T01:59:03.303Z,12.56
2022-10-23T02:00:03.843Z,12.54
2022-10-23T02:01:22.818Z,12.56
2022-10-23T02:02:04.116Z,12.56
2022-10-23T02:03:04.225Z,12.53
2022-10-23T02:04:04.014Z,12.54
2022-10-23T02:05:03.321Z,12.52
2022-10-23T02:06:02.704Z,12.52
2022-10-23T02:07:03.933Z,12.52
2022-10-23T02:08:03.452Z,12.53
2022-10-23T02:09:03.642Z,12.54
2022-10-23T02:10:03.450Z,12.56
2022-10-23T02:11:23.772Z,12.56
2022-10-23T02:12:04.012Z,12.54
2022-10-23T02:13:03.852Z,12.57
2022-10-23T02:14:04.128Z,12.56
2022-10-23T02:15:03.493Z,12.56
2022-10-23T02:16:03.821Z,12.54
2022-10-23T02:17:03.292Z,12.53
2022-10-23T02:18:03.164Z,12.53
2022-10-23T02:19:03.774Z,12.56
2022-10-23T02:20:04.073Z,12.57
2022-10-23T02:21:22.486Z,12.56
2022-10-23T02:22:03.109Z,12.56
2022-10-23T02:23:03.305Z,12.54
2022-10-23T02:24:03.761Z,12.56
2022-10-23T02:25:03.671Z,12.54
2022-10-23T02:26:03.468Z,12.56
2022-10-23T02:27:03.799Z,12.56
2022-10-23T02:28:02.807Z,12.56
2022-10-23T02:29:02.828Z,12.54
2022-10-23T02:30:03.767Z,12.56
2022-10-23T02:31:22.148Z,12.54
2022-10-23T02:32:03.017Z,12.57
2022-10-23T02:33:03.857Z,12.56
2022-10-23T02:34:02.813Z,12.56
2022-10-23T02:35:03.514Z,12.57
2022-10-23T02:36:03.868Z,12.56
2022-10-23T02:37:03.188Z,12.57
2022-10-23T02:38:02.718Z,12.57
2022-10-23T02:39:03.363Z,12.60
2022-10-23T02:40:02.820Z,12.60
2022-10-23T02:41:22.112Z,12.62
2022-10-23T02:42:02.369Z,12.62
2022-10-23T02:43:03.123Z,12.62
2022-10-23T02:44:03.396Z,12.64
2022-10-23T02:45:02.823Z,12.64
2022-10-23T02:46:02.826Z,12.62
2022-10-23T02:47:03.816Z,12.64
2022-10-23T02:48:03.586Z,12.65
2022-10-23T02:49:03.365Z,12.64
2022-10-23T02:50:02.876Z,12.65
2022-10-23T02:51:21.982Z,12.64
2022-10-23T02:52:03.749Z,12.65
2022-10-23T02:53:03.500Z,12.65
2022-10-23T02:54:02.815Z,12.67
2022-10-23T02:55:03.630Z,12.67
2022-10-23T02:56:03.478Z,12.68
2022-10-23T02:57:02.825Z,12.71
2022-10-23T02:58:02.267Z,12.72
2022-10-23T02:59:02.950Z,12.72
2022-10-23T03:00:03.249Z,12.72
2022-10-23T03:01:22.227Z,12.74
2022-10-23T03:02:03.368Z,12.75
2022-10-23T03:03:02.844Z,12.75
2022-10-23T03:04:03.465Z,12.77
2022-10-23T03:05:03.208Z,12.78
2022-10-23T03:06:02.997Z,12.82
2022-10-23T03:07:03.278Z,12.79
2022-10-23T03:08:02.339Z,12.83
2022-10-23T03:09:02.343Z,12.85
2022-10-23T03:10:02.763Z,12.85
2022-10-23T03:11:22.095Z,12.83
2022-10-23T03:12:03.370Z,12.85
2022-10-23T03:13:03.192Z,12.87
2022-10-23T03:14:02.966Z,12.89
2022-10-23T03:15:02.333Z,12.87
2022-10-23T03:16:03.040Z,12.89
2022-10-23T03:17:03.311Z,12.90
2022-10-23T03:18:03.160Z,12.89
2022-10-23T03:19:03.499Z,12.89
2022-10-23T03:20:03.215Z,12.87
2022-10-23T03:21:22.434Z,12.90
2022-10-23T03:22:03.273Z,12.90
2022-10-23T03:23:02.283Z,12.92
2022-10-23T03:24:03.379Z,12.93
2022-10-23T03:25:03.149Z,12.95
2022-10-23T03:26:03.511Z,12.97
2022-10-23T03:27:02.348Z,12.97
2022-10-23T03:28:03.113Z,12.96
2022-10-23T03:29:03.389Z,12.97
2022-10-23T03:30:03.183Z,13.00
2022-10-23T03:31:21.500Z,13.00
2022-10-23T03:32:03.215Z,13.00
2022-10-23T03:33:02.347Z,13.01
2022-10-23T03:34:04.127Z,13.03
2022-10-23T03:35:02.323Z,13.03
2022-10-23T03:36:02.888Z,13.03
2022-10-23T03:37:03.175Z,13.03
2022-10-23T03:38:02.990Z,13.04
2022-10-23T03:39:02.352Z,13.04
2022-10-23T03:40:02.610Z,13.04
2022-10-23T03:41:22.889Z,13.05
2022-10-23T03:42:02.290Z,13.07
2022-10-23T03:43:03.088Z,13.07
2022-10-23T03:45:02.351Z,13.10
2022-10-23T03:46:02.999Z,13.08
2022-10-23T03:47:02.013Z,13.07
2022-10-23T03:48:02.583Z,13.07
2022-10-23T03:49:01.538Z,13.07
2022-10-23T03:50:02.204Z,13.07
2022-10-23T03:51:21.512Z,13.08
2022-10-23T03:52:02.738Z,13.08
2022-10-23T03:53:03.052Z,13.05
2022-10-23T03:54:02.369Z,13.07
2022-10-23T03:55:02.144Z,13.07
2022-10-23T03:56:02.951Z,13.04
2022-10-23T03:57:01.876Z,13.04
2022-10-23T03:58:02.264Z,13.05
2022-10-23T03:59:02.888Z,13.07
2022-10-23T04:00:02.675Z,13.05
2022-10-23T04:01:21.537Z,13.07
2022-10-23T04:02:01.595Z,13.05
2022-10-23T04:03:02.485Z,13.05
2022-10-23T04:04:02.780Z,13.07
2022-10-23T04:05:02.623Z,13.07
2022-10-23T04:06:02.915Z,13.05
2022-10-23T04:07:01.935Z,13.05
2022-10-23T04:08:01.920Z,13.05
2022-10-23T04:09:02.902Z,13.07
2022-10-23T04:10:02.647Z,13.08
2022-10-23T04:11:21.452Z,13.08
2022-10-23T04:12:01.297Z,13.07
2022-10-23T04:13:01.976Z,13.07
2022-10-23T04:14:01.878Z,13.07
2022-10-23T04:15:01.189Z,13.07
2022-10-23T04:16:02.906Z,13.05
2022-10-23T04:17:02.713Z,13.07
2022-10-23T04:18:02.489Z,13.08
2022-10-23T04:19:01.889Z,13.07
2022-10-23T04:20:01.893Z,13.05
2022-10-23T04:21:21.488Z,13.08
2022-10-23T04:22:02.119Z,13.08
2022-10-23T04:23:02.372Z,13.07
2022-10-23T04:24:02.713Z,13.07
2022-10-23T04:25:02.490Z,13.08
2022-10-23T04:26:02.266Z,13.08
2022-10-23T04:27:02.617Z,13.07
2022-10-23T04:28:02.387Z,13.08
2022-10-23T04:29:02.179Z,13.08
2022-10-23T04:30:02.444Z,13.08
2022-10-23T04:31:21.297Z,13.08
2022-10-23T04:32:01.981Z,13.08
2022-10-23T04:33:02.290Z,13.08
2022-10-23T04:34:01.848Z,13.10
2022-10-23T04:35:01.887Z,13.10
2022-10-23T04:36:02.712Z,13.08
2022-10-23T04:37:01.900Z,13.11
2022-10-23T04:38:00.868Z,13.11
2022-10-23T04:39:02.053Z,13.11
2022-10-23T04:40:02.380Z,13.14
2022-10-23T04:41:21.204Z,13.14
2022-10-23T04:42:01.391Z,13.14
2022-10-23T04:43:01.397Z,13.15
2022-10-23T04:44:02.568Z,13.14
2022-10-23T04:45:01.830Z,13.15
2022-10-23T04:46:02.137Z,13.15
2022-10-23T04:47:01.664Z,13.15
2022-10-23T04:48:02.246Z,13.15
2022-10-23T04:49:01.114Z,13.15
2022-10-23T04:50:02.344Z,13.15
2022-10-23T04:51:20.668Z,13.15
2022-10-23T04:52:01.069Z,13.17
2022-10-23T04:53:02.374Z,13.15
2022-10-23T04:54:02.137Z,13.17
2022-10-23T04:55:01.429Z,13.17
2022-10-23T04:56:01.808Z,13.15
2022-10-23T04:57:02.096Z,13.14
2022-10-23T04:58:02.427Z,13.15
2022-10-23T04:59:00.853Z,13.14
2022-10-23T05:00:01.987Z,13.14
2022-10-23T05:01:20.923Z,13.14
2022-10-23T05:02:01.246Z,13.14
2022-10-23T05:03:02.369Z,13.12
2022-10-23T05:04:00.729Z,13.12
2022-10-23T05:05:00.499Z,13.14
2022-10-23T05:06:02.219Z,13.12
2022-10-23T05:07:01.412Z,13.12
2022-10-23T05:08:02.359Z,13.14
2022-10-23T05:09:02.135Z,13.14
2022-10-23T05:10:01.922Z,13.11
2022-10-23T05:11:20.751Z,13.12
2022-10-23T05:12:00.839Z,13.12
2022-10-23T05:13:02.155Z,13.11
2022-10-23T05:14:01.998Z,13.11
2022-10-23T05:15:01.800Z,13.11
2022-10-23T05:16:00.650Z,13.12
2022-10-23T05:17:01.096Z,13.12
2022-10-23T05:18:01.432Z,13.11
2022-10-23T05:19:02.085Z,13.11
2022-10-23T05:20:01.861Z,13.14
2022-10-23T05:21:20.690Z,13.11
2022-10-23T05:22:01.881Z,13.11
2022-10-23T05:23:01.733Z,13.10
2022-10-23T05:24:01.421Z,13.10
2022-10-23T05:25:01.859Z,13.11
2022-10-23T05:26:00.843Z,13.10
2022-10-23T05:27:01.503Z,13.10
2022-10-23T05:28:01.798Z,13.10
2022-10-23T05:29:02.100Z,13.08
2022-10-23T05:30:00.944Z,13.08
2022-10-23T05:31:20.723Z,13.08
2022-10-23T05:32:00.530Z,13.08
2022-10-23T05:33:01.744Z,13.08
2022-10-23T05:34:01.618Z,13.10
2022-10-23T05:35:00.482Z,13.10
2022-10-23T05:36:01.225Z,13.10
2022-10-23T05:37:01.996Z,13.11
2022-10-23T05:38:01.776Z,13.12
2022-10-23T05:39:02.128Z,13.12
2022-10-23T05:40:01.943Z,13.12
2022-10-23T05:41:20.239Z,13.14
2022-10-23T05:42:02.052Z,13.15
2022-10-23T05:43:01.065Z,13.17
2022-10-23T05:44:01.629Z,13.15
2022-10-23T05:45:01.928Z,13.17
2022-10-23T05:46:01.786Z,13.15
2022-10-23T05:47:00.946Z,13.19
2022-10-23T05:48:10.941Z,13.20
2022-10-23T05:49:02.677Z,13.22
2022-10-23T05:50:01.959Z,13.22
2022-10-23T05:51:20.271Z,13.22
2022-10-23T05:52:00.723Z,13.23
2022-10-23T05:53:00.366Z,13.23
2022-10-23T05:54:01.616Z,13.20
2022-10-23T05:55:01.431Z,13.22
2022-10-23T05:56:01.717Z,13.23
2022-10-23T05:57:01.506Z,13.25
2022-10-23T05:58:01.885Z,13.25
2022-10-23T05:59:00.972Z,13.25
2022-10-23T06:00:00.930Z,13.26
2022-10-23T06:01:20.322Z,13.28
2022-10-23T06:02:01.084Z,13.28
2022-10-23T06:03:01.814Z,13.28
2022-10-23T06:04:00.955Z,13.28
2022-10-23T06:05:01.413Z,13.30
2022-10-23T06:06:01.719Z,13.30
2022-10-23T06:07:01.503Z,13.32
2022-10-23T06:08:01.771Z,13.32
2022-10-23T06:09:01.105Z,13.30
2022-10-23T06:10:00.464Z,13.32
2022-10-23T06:11:20.235Z,13.33
2022-10-23T06:12:00.261Z,13.33
2022-10-23T06:13:01.035Z,13.36
2022-10-23T06:14:01.433Z,13.36
2022-10-23T06:15:01.618Z,13.38
2022-10-23T06:16:01.433Z,13.39
2022-10-23T06:17:00.456Z,13.39
2022-10-23T06:18:01.524Z,13.41
2022-10-23T06:19:01.317Z,13.41
2022-10-23T06:20:00.825Z,13.44
2022-10-23T06:21:20.033Z,13.46
2022-10-23T06:22:00.680Z,13.44
2022-10-23T06:23:00.464Z,13.45
2022-10-23T06:24:01.322Z,13.46
2022-10-23T06:25:01.601Z,13.46
2022-10-23T06:26:01.497Z,13.48
2022-10-23T06:27:01.271Z,13.48
2022-10-23T06:28:01.064Z,13.46
2022-10-23T06:29:00.478Z,13.48
2022-10-23T06:30:01.167Z,13.46
2022-10-23T06:31:19.982Z,13.46
2022-10-23T06:31:59.117Z,13.46
2022-10-23T06:33:03.385Z,13.46
2022-10-23T06:34:01.157Z,13.46
2022-10-23T06:35:00.461Z,13.46
2022-10-23T06:36:01.312Z,13.48
2022-10-23T06:37:01.072Z,13.49
2022-10-23T06:38:00.853Z,13.49
2022-10-23T06:39:01.157Z,13.49
2022-10-23T06:40:01.478Z,13.49
2022-10-23T06:41:19.813Z,13.51
2022-10-23T06:42:00.234Z,13.49
2022-10-23T06:43:00.794Z,13.52
2022-10-23T06:44:01.083Z,13.51
2022-10-23T06:45:04.820Z,13.52
2022-10-23T06:46:02.204Z,13.55
2022-10-23T06:47:01.002Z,13.54
2022-10-23T06:48:01.274Z,13.54
2022-10-23T06:49:01.075Z,13.55
2022-10-23T06:50:00.922Z,13.55
2022-10-23T06:51:21.331Z,13.59
2022-10-23T06:51:59.556Z,13.60
2022-10-23T06:52:59.782Z,13.60
2022-10-23T06:53:59.531Z,13.60
2022-10-23T06:54:59.765Z,13.62
2022-10-23T06:55:59.506Z,13.62
2022-10-23T06:56:59.756Z,13.63
2022-10-23T06:57:59.507Z,13.64
2022-10-23T06:59:00.042Z,13.64
2022-10-23T07:00:00.959Z,13.64
2022-10-23T07:01:21.466Z,13.67
2022-10-23T07:01:59.555Z,13.67
2022-10-23T07:02:59.300Z,13.66
2022-10-23T07:03:59.542Z,13.69
2022-10-23T07:04:59.292Z,13.69
2022-10-23T07:05:59.537Z,13.71
2022-10-23T07:06:59.286Z,13.71
2022-10-23T07:07:59.518Z,13.73
2022-10-23T07:08:59.259Z,13.75
2022-10-23T07:09:59.572Z,13.75
2022-10-23T07:11:20.789Z,13.77
2022-10-23T07:11:59.572Z,13.78
2022-10-23T07:12:59.315Z,13.79
2022-10-23T07:13:59.572Z,13.79
2022-10-23T07:14:59.311Z,13.82
2022-10-23T07:15:59.575Z,13.84
2022-10-23T07:16:59.313Z,13.85
2022-10-23T07:17:59.575Z,13.87
2022-10-23T07:18:59.307Z,13.89
2022-10-23T07:19:59.702Z,13.91
2022-10-23T07:21:20.031Z,13.96
2022-10-23T07:22:00.626Z,13.97
2022-10-23T07:23:00.879Z,13.99
2022-10-23T07:24:00.637Z,14.02
2022-10-23T07:25:00.885Z,14.02
2022-10-23T07:26:00.656Z,14.03
2022-10-23T07:26:59.472Z,14.04
2022-10-23T07:28:00.677Z,14.06
2022-10-23T07:28:59.523Z,14.09
2022-10-23T07:30:00.693Z,14.07
2022-10-23T07:31:19.026Z,14.10
2022-10-23T07:31:59.318Z,14.10
2022-10-23T07:32:59.018Z,14.12
2022-10-23T07:33:59.252Z,14.12
2022-10-23T07:34:59.007Z,14.14
2022-10-23T07:36:00.177Z,14.15
2022-10-23T07:36:59.039Z,14.14
2022-10-23T07:38:00.023Z,14.17
2022-10-23T07:38:59.055Z,14.17
2022-10-23T07:40:00.739Z,14.20
2022-10-23T07:41:19.027Z,14.21
2022-10-23T07:41:59.288Z,14.21
2022-10-23T07:42:59.047Z,14.22
2022-10-23T07:43:59.332Z,14.24
2022-10-23T07:45:00.480Z,14.24
2022-10-23T07:45:59.292Z,14.27
2022-10-23T07:47:00.510Z,14.28
2022-10-23T07:47:58.801Z,14.28
2022-10-23T07:49:00.522Z,14.29
2022-10-23T07:49:58.817Z,14.32
2022-10-23T07:51:20.528Z,14.35
2022-10-23T07:51:58.989Z,14.36
2022-10-23T07:52:59.133Z,14.36
2022-10-23T07:53:58.914Z,14.40
2022-10-23T07:55:00.593Z,14.42
2022-10-23T07:55:58.941Z,14.43
2022-10-23T07:56:59.222Z,14.46
2022-10-23T07:57:58.921Z,14.50
2022-10-23T07:58:59.199Z,14.51
2022-10-23T08:00:00.382Z,14.51
2022-10-23T08:01:19.247Z,14.55
2022-10-23T08:01:59.047Z,14.58
2022-10-23T08:02:59.255Z,14.61
2022-10-23T08:03:58.923Z,14.64
2022-10-23T08:04:58.666Z,14.64
2022-10-23T08:05:58.904Z,14.65
2022-10-23T08:06:58.635Z,14.69
2022-10-23T08:07:58.975Z,14.70
2022-10-23T08:09:03.723Z,14.69
2022-10-23T08:09:59.973Z,14.75
2022-10-23T08:11:20.175Z,14.77
2022-10-23T08:12:00.441Z,14.77
2022-10-23T08:12:58.770Z,14.80
2022-10-23T08:13:58.993Z,14.81
2022-10-23T08:15:00.217Z,14.83
2022-10-23T08:15:59.017Z,14.86
2022-10-23T08:16:58.790Z,14.88
2022-10-23T08:17:58.495Z,14.88
2022-10-23T08:18:59.695Z,14.89
2022-10-23T08:19:58.489Z,14.94
2022-10-23T08:21:19.558Z,14.95
2022-10-23T08:21:58.505Z,14.96
2022-10-23T08:22:58.778Z,14.99
2022-10-23T08:23:58.517Z,15.01
2022-10-23T08:24:58.782Z,15.01
2022-10-23T08:25:58.538Z,15.06
2022-10-23T08:26:59.549Z,15.09
2022-10-23T08:27:58.512Z,15.10
2022-10-23T08:28:58.784Z,15.13
2022-10-23T08:29:58.521Z,15.17
2022-10-23T08:31:20.230Z,15.23
2022-10-23T08:31:58.517Z,15.23
2022-10-23T08:32:59.065Z,15.27
2022-10-23T08:33:59.971Z,15.29
2022-10-23T08:34:58.812Z,15.32
2022-10-23T08:35:58.533Z,15.32
2022-10-23T08:36:58.768Z,15.35
2022-10-23T08:37:58.511Z,15.38
2022-10-23T08:38:59.724Z,15.39
2022-10-23T08:39:58.544Z,15.38
2022-10-23T08:41:19.775Z,15.39
2022-10-23T08:41:58.615Z,15.38
2022-10-23T08:42:58.307Z,15.38
2022-10-23T08:43:58.564Z,15.39
2022-10-23T08:44:58.292Z,15.39
2022-10-23T08:45:58.544Z,15.39
2022-10-23T08:46:58.281Z,15.41
2022-10-23T08:47:58.553Z,15.43
2022-10-23T08:48:58.287Z,15.44
2022-10-23T08:49:58.630Z,15.44
2022-10-23T08:51:19.096Z,15.49
2022-10-23T08:51:58.590Z,15.49
2022-10-23T08:52:58.351Z,15.50
2022-10-23T08:54:00.077Z,15.50
2022-10-23T08:54:58.412Z,15.51
2022-10-23T08:55:58.130Z,15.54
2022-10-23T08:56:58.381Z,15.53
2022-10-23T08:57:58.133Z,15.56
2022-10-23T08:58:58.379Z,15.57
2022-10-23T08:59:58.115Z,15.60
2022-10-23T09:01:19.530Z,15.64
2022-10-23T09:01:58.281Z,15.64
2022-10-23T09:02:58.379Z,15.67
2022-10-23T09:03:58.135Z,15.68
2022-10-23T09:04:58.410Z,15.69
2022-10-23T09:05:58.163Z,15.72
2022-10-23T09:06:58.439Z,15.75
2022-10-23T09:07:58.183Z,15.80
2022-10-23T09:08:58.420Z,15.82
2022-10-23T09:09:58.177Z,15.83
2022-10-23T09:11:18.429Z,15.86
2022-10-23T09:11:58.152Z,15.87
2022-10-23T09:12:58.394Z,15.89
2022-10-23T09:13:58.177Z,15.89
2022-10-23T09:14:57.938Z,15.92
2022-10-23T09:15:58.172Z,15.94
2022-10-23T09:16:57.915Z,15.96
2022-10-23T09:17:58.189Z,15.97
2022-10-23T09:18:57.930Z,15.97
2022-10-23T09:19:58.200Z,16.00
2022-10-23T09:21:17.991Z,16.01
2022-10-23T09:21:58.176Z,16.01
2022-10-23T09:22:57.921Z,16.02
2022-10-23T09:23:58.166Z,16.04
2022-10-23T09:24:57.912Z,16.04
2022-10-23T09:25:58.154Z,16.05
2022-10-23T09:26:57.978Z,16.07
2022-10-23T09:28:00.159Z,16.09
2022-10-23T09:28:58.923Z,16.12
2022-10-23T09:29:58.187Z,16.12
2022-10-23T09:31:17.964Z,16.15
2022-10-23T09:31:58.173Z,16.17
2022-10-23T09:32:57.908Z,16.21
2022-10-23T09:33:58.188Z,16.21
2022-10-23T09:34:57.939Z,16.23
2022-10-23T09:35:57.706Z,16.25
2022-10-23T09:36:58.608Z,16.27
2022-10-23T09:37:58.712Z,16.28
2022-10-23T09:38:58.025Z,16.27
2022-10-23T09:39:57.764Z,16.27
2022-10-23T09:41:18.163Z,16.28
2022-10-23T09:41:58.883Z,16.30
2022-10-23T09:42:58.598Z,16.30
2022-10-23T09:43:59.543Z,16.30
2022-10-23T09:44:59.332Z,16.31
2022-10-23T09:45:58.332Z,16.34
2022-10-23T09:46:58.902Z,16.35
2022-10-23T09:47:58.621Z,16.35
2022-10-23T09:49:00.970Z,16.38
2022-10-23T09:49:58.822Z,16.39
2022-10-23T09:51:17.640Z,16.41
2022-10-23T09:51:59.386Z,16.41
2022-10-23T09:52:57.680Z,16.42
2022-10-23T09:53:57.937Z,16.43
2022-10-23T09:54:57.693Z,16.45
2022-10-23T09:55:57.947Z,16.48
2022-10-23T09:56:57.690Z,16.50
2022-10-23T09:57:57.934Z,16.52
2022-10-23T09:59:07.393Z,16.56
2022-10-23T09:59:57.692Z,16.58
2022-10-23T10:01:18.003Z,16.58
2022-10-23T10:01:57.817Z,16.60
2022-10-23T10:02:57.414Z,16.61
2022-10-23T10:03:57.650Z,16.63
2022-10-23T10:04:57.905Z,16.64
2022-10-23T10:05:57.645Z,16.64
2022-10-23T10:06:57.395Z,16.66
2022-10-23T10:07:57.639Z,16.66
2022-10-23T10:08:57.381Z,16.64
2022-10-23T10:09:57.620Z,16.67
2022-10-23T10:11:19.919Z,16.66
2022-10-23T10:11:57.602Z,16.67
2022-10-23T10:12:59.291Z,16.67
2022-10-23T10:13:57.580Z,16.68
2022-10-23T10:14:57.326Z,16.70
2022-10-23T10:15:57.586Z,16.70
2022-10-23T10:16:57.313Z,16.70
2022-10-23T10:17:57.573Z,16.70
2022-10-23T10:18:57.308Z,16.70
2022-10-23T10:19:57.543Z,16.68
2022-10-23T10:21:17.303Z,16.70
2022-10-23T10:21:57.534Z,16.71
2022-10-23T10:22:57.273Z,16.76
2022-10-23T10:23:57.511Z,16.82
2022-10-23T10:24:57.255Z,16.86
2022-10-23T10:25:57.491Z,16.98
2022-10-23T10:26:57.252Z,17.08
2022-10-23T10:27:57.495Z,17.18
2022-10-23T10:28:57.218Z,17.26
2022-10-23T10:29:57.465Z,17.33
2022-10-23T10:31:17.237Z,17.40
2022-10-23T10:31:57.464Z,17.46
2022-10-23T10:32:57.206Z,17.56
2022-10-23T10:33:57.466Z,17.68
2022-10-23T10:34:57.206Z,17.70
2022-10-23T10:35:57.457Z,17.75
2022-10-23T10:36:57.210Z,17.74
2022-10-23T10:37:57.435Z,17.74
2022-10-23T10:38:57.187Z,17.71
2022-10-23T10:39:57.432Z,17.72
2022-10-23T10:41:17.186Z,17.74
2022-10-23T10:41:57.417Z,17.74
2022-10-23T10:42:57.148Z,17.75
2022-10-23T10:43:57.413Z,17.79
2022-10-23T10:44:57.131Z,17.78
2022-10-23T10:45:57.374Z,17.82
2022-10-23T10:46:57.124Z,17.87
2022-10-23T10:47:57.368Z,17.92
2022-10-23T10:48:57.122Z,18.02
2022-10-23T10:49:57.358Z,18.07
2022-10-23T10:51:17.141Z,18.10
2022-10-23T10:51:57.344Z,18.10
2022-10-23T10:52:57.093Z,18.12
2022-10-23T10:53:57.329Z,18.14
2022-10-23T10:54:57.063Z,18.12
2022-10-23T10:55:57.334Z,18.10
2022-10-23T10:56:57.042Z,18.07
2022-10-23T10:57:59.289Z,18.07
2022-10-23T10:58:57.062Z,18.08
2022-10-23T10:59:57.313Z,18.07
2022-10-23T11:01:17.205Z,18.03
2022-10-23T11:01:57.917Z,18.00
2022-10-23T11:02:57.042Z,18.02
2022-10-23T11:03:56.782Z,17.99
2022-10-23T11:04:57.020Z,17.97
2022-10-23T11:05:56.830Z,17.97
2022-10-23T11:06:57.017Z,17.99
2022-10-23T11:07:56.775Z,17.99
2022-10-23T11:09:04.025Z,18.08
2022-10-23T11:09:58.255Z,18.23
2022-10-23T11:11:17.016Z,18.42
2022-10-23T11:11:56.734Z,18.50
2022-10-23T11:12:56.994Z,18.58
2022-10-23T11:13:56.740Z,18.65
2022-10-23T11:14:56.969Z,18.73
2022-10-23T11:15:56.718Z,18.80
2022-10-23T11:16:56.961Z,18.84
2022-10-23T11:17:56.709Z,18.87
2022-10-23T11:18:56.968Z,18.87
2022-10-23T11:19:56.723Z,18.90
2022-10-23T11:21:16.986Z,18.95
2022-10-23T11:21:56.712Z,18.90
2022-10-23T11:22:56.942Z,18.91
2022-10-23T11:23:56.756Z,18.91
2022-10-23T11:24:58.200Z,18.98
2022-10-23T11:25:56.675Z,18.98
2022-10-23T11:26:56.922Z,18.95
2022-10-23T11:28:01.691Z,18.98
2022-10-23T11:28:57.912Z,19.02
2022-10-23T11:29:56.661Z,19.11
2022-10-23T11:31:16.915Z,19.22
2022-10-23T11:31:56.645Z,19.31
2022-10-23T11:32:56.896Z,19.36
2022-10-23T11:33:56.651Z,19.43
2022-10-23T11:34:56.888Z,19.44
2022-10-23T11:35:56.629Z,19.40
2022-10-23T11:36:56.865Z,19.41
2022-10-23T11:37:56.613Z,19.44
2022-10-23T11:38:56.848Z,19.51
2022-10-23T11:39:56.588Z,19.63
2022-10-23T11:41:18.969Z,19.84
2022-10-23T11:41:56.577Z,19.83
2022-10-23T11:42:56.836Z,19.87
2022-10-23T11:43:56.573Z,19.91
2022-10-23T11:44:56.825Z,19.96
2022-10-23T11:45:56.549Z,19.99
2022-10-23T11:46:56.784Z,19.92
2022-10-23T11:47:56.538Z,19.83
2022-10-23T11:48:56.777Z,19.69
2022-10-23T11:49:56.541Z,19.62
2022-10-23T11:51:16.794Z,19.61
2022-10-23T11:51:56.511Z,19.61
2022-10-23T11:53:13.038Z,19.59
2022-10-23T11:53:57.504Z,19.56
2022-10-23T11:54:56.732Z,19.51
2022-10-23T11:55:56.497Z,19.48
2022-10-23T11:56:56.730Z,19.50
2022-10-23T11:57:56.480Z,19.50
2022-10-23T11:58:57.005Z,19.48
2022-10-23T11:59:56.527Z,19.47
2022-10-23T12:01:16.362Z,19.43
2022-10-23T12:01:56.536Z,19.44
2022-10-23T12:02:59.202Z,19.44
2022-10-23T12:03:56.504Z,19.46
2022-10-23T12:04:56.808Z,19.47
2022-10-23T12:05:56.579Z,19.51
2022-10-23T12:06:56.253Z,19.51
2022-10-23T12:07:57.022Z,19.54
2022-10-23T12:08:56.267Z,19.54
2022-10-23T12:09:56.508Z,19.59
2022-10-23T12:11:16.258Z,19.66
2022-10-23T12:11:56.479Z,19.69
2022-10-23T12:12:56.233Z,19.74
2022-10-23T12:13:57.227Z,19.76
2022-10-23T12:14:56.228Z,19.74
2022-10-23T12:15:59.955Z,19.78
2022-10-23T12:16:56.214Z,19.77
2022-10-23T12:17:56.479Z,19.80
2022-10-23T12:18:56.209Z,19.78
2022-10-23T12:19:56.460Z,19.81
2022-10-23T12:21:16.225Z,19.83
2022-10-23T12:21:56.465Z,19.77
2022-10-23T12:22:56.199Z,19.74
2022-10-23T12:23:56.440Z,19.74
2022-10-23T12:24:56.210Z,19.77
2022-10-23T12:25:55.932Z,19.74
2022-10-23T12:26:56.190Z,19.69
2022-10-23T12:27:55.928Z,19.69
2022-10-23T12:28:56.160Z,19.63
2022-10-23T12:29:55.912Z,19.62
2022-10-23T12:31:17.661Z,19.62
2022-10-23T12:31:55.943Z,19.62
2022-10-23T12:32:56.214Z,19.62
2022-10-23T12:33:55.945Z,19.62
2022-10-23T12:34:56.193Z,19.65
2022-10-23T12:35:55.942Z,19.66
2022-10-23T12:36:56.177Z,19.66
2022-10-23T12:37:55.943Z,19.66
2022-10-23T12:38:56.172Z,19.69
2022-10-23T12:39:55.904Z,19.74
2022-10-23T12:41:17.203Z,19.78
2022-10-23T12:41:55.982Z,19.77
2022-10-23T12:42:56.227Z,19.80
2022-10-23T12:43:55.986Z,19.77
2022-10-23T12:44:56.215Z,19.76
2022-10-23T12:45:55.965Z,19.78
2022-10-23T12:46:56.208Z,19.77
2022-10-23T12:47:55.953Z,19.78
2022-10-23T12:48:55.703Z,19.81
2022-10-23T12:49:55.958Z,19.81
2022-10-23T12:51:17.187Z,19.81
2022-10-23T12:51:55.969Z,19.81
2022-10-23T12:52:55.719Z,19.81
2022-10-23T12:53:55.965Z,19.81
2022-10-23T12:54:55.713Z,19.80
2022-10-23T12:55:56.024Z,19.83